Time;durP1;ratioP1;P1;durP2;ratioP2;P2;SDS_P1;SDS_P2;PMS_P1;PMS_P2;Temp;Humidity;BMP_temperature;BMP_pressure;BME280_temperature;BME280_humidity;BME280_pressure;Samples;Min_cycle;Max_cycle;Signal;HPM_P1;HPM_P2
2021/09/09 00:02:25;;;;;;;8.27;7.07;;;14.90;99.90;;;;;;5041304;28;20094;-49
2021/09/09 00:04:50;;;;;;;7.05;6.35;;;14.90;99.90;;;;;;5040996;28;20128;-52
2021/09/09 00:07:16;;;;;;;12.02;7.47;;;14.90;99.90;;;;;;5040831;28;20075;-50
2021/09/09 00:09:42;;;;;;;9.75;7.75;;;14.80;99.90;;;;;;5023713;28;20518;-49
2021/09/09 00:12:07;;;;;;;8.18;6.88;;;14.80;99.90;;;;;;5038928;28;20022;-49
2021/09/09 00:14:33;;;;;;;9.32;7.47;;;14.80;99.90;;;;;;5041089;28;20427;-50
2021/09/09 00:16:59;;;;;;;8.35;7.53;;;14.80;99.90;;;;;;5039852;28;20056;-51
2021/09/09 00:19:25;;;;;;;9.25;8.10;;;14.70;99.90;;;;;;5041723;28;20445;-49
2021/09/09 00:21:50;;;;;;;9.27;8.20;;;14.70;99.90;;;;;;5041366;28;20041;-50
2021/09/09 00:24:16;;;;;;;8.00;7.20;;;14.70;99.90;;;;;;5039895;28;20104;-51
2021/09/09 00:26:41;;;;;;;9.48;7.00;;;14.70;99.90;;;;;;5041023;28;20071;-52
2021/09/09 00:29:07;;;;;;;10.82;8.57;;;14.70;99.90;;;;;;5038780;28;20028;-50
2021/09/09 00:31:32;;;;;;;7.95;7.18;;;14.60;99.90;;;;;;5041267;28;20479;-52
2021/09/09 00:33:58;;;;;;;8.98;8.05;;;14.60;99.90;;;;;;5039619;28;20404;-50
2021/09/09 00:36:24;;;;;;;9.80;7.82;;;14.60;99.90;;;;;;5018854;28;20614;-50
2021/09/09 00:38:49;;;;;;;10.00;7.95;;;14.60;99.90;;;;;;5043064;28;20064;-50
2021/09/09 00:41:15;;;;;;;13.25;7.85;;;14.60;99.90;;;;;;5035846;28;20095;-51
2021/09/09 00:43:40;;;;;;;10.82;8.00;;;14.60;99.90;;;;;;5042386;28;20100;-51
2021/09/09 00:46:06;;;;;;;9.43;7.60;;;14.60;99.90;;;;;;5025715;28;20040;-50
2021/09/09 00:48:33;;;;;;;11.68;8.27;;;14.60;99.90;;;;;;5044378;28;20033;-49
2021/09/09 00:50:59;;;;;;;11.40;8.55;;;14.50;99.90;;;;;;5044167;28;20017;-53
2021/09/09 00:53:24;;;;;;;9.52;8.23;;;14.50;99.90;;;;;;5041146;28;20017;-52
2021/09/09 00:55:51;;;;;;;8.80;7.78;;;14.50;99.90;;;;;;5044314;28;20108;-52
2021/09/09 00:58:17;;;;;;;8.73;7.78;;;14.50;99.90;;;;;;5040572;28;20028;-50
2021/09/09 01:00:43;;;;;;;12.20;9.73;;;14.50;99.90;;;;;;5039551;28;20091;-50
2021/09/09 01:03:08;;;;;;;9.35;7.85;;;14.50;99.90;;;;;;5040574;28;20067;-50
2021/09/09 01:05:35;;;;;;;9.95;8.63;;;14.50;99.90;;;;;;5025821;28;20083;-53
2021/09/09 01:08:02;;;;;;;9.98;8.68;;;14.40;99.90;;;;;;5043359;28;20025;-50
2021/09/09 01:10:27;;;;;;;9.45;8.50;;;14.40;99.90;;;;;;5040647;28;20022;-51
2021/09/09 01:12:53;;;;;;;9.60;8.45;;;14.50;99.90;;;;;;5046492;28;20051;-50
2021/09/09 01:15:19;;;;;;;9.27;8.20;;;14.40;99.90;;;;;;5039908;28;20022;-51
2021/09/09 01:17:44;;;;;;;10.40;8.85;;;14.40;99.90;;;;;;5046247;28;20037;-52
2021/09/09 01:20:10;;;;;;;10.52;9.40;;;14.40;99.90;;;;;;5041791;28;20032;-52
2021/09/09 01:22:36;;;;;;;10.75;9.20;;;14.40;99.90;;;;;;5045905;28;20104;-52
2021/09/09 01:25:02;;;;;;;9.27;8.27;;;14.40;99.90;;;;;;5042665;28;20108;-53
2021/09/09 01:27:28;;;;;;;10.93;8.88;;;14.40;99.90;;;;;;5040338;28;20032;-50
2021/09/09 01:29:53;;;;;;;9.88;8.88;;;14.40;99.90;;;;;;5046473;28;20025;-52
2021/09/09 01:32:19;;;;;;;11.85;8.95;;;14.40;99.90;;;;;;5040308;28;20032;-51
2021/09/09 01:34:45;;;;;;;9.70;8.50;;;14.30;99.90;;;;;;5046254;28;20403;-51
2021/09/09 01:37:11;;;;;;;11.35;9.43;;;14.30;99.90;;;;;;5041343;28;20040;-50
2021/09/09 01:39:45;;;;;;;10.43;9.32;;;14.30;99.90;;;;;;5040044;28;20484;-51
2021/09/09 01:42:14;;;;;;;10.68;8.88;;;14.30;99.90;;;;;;5045948;28;20063;-51
2021/09/09 01:44:40;;;;;;;9.60;8.60;;;14.30;99.90;;;;;;5039972;28;20541;-51
2021/09/09 01:47:06;;;;;;;11.65;10.13;;;14.20;99.90;;;;;;5029051;28;20036;-55
2021/09/09 01:49:32;;;;;;;9.77;8.63;;;14.20;99.90;;;;;;5040107;28;20028;-50
2021/09/09 01:51:58;;;;;;;11.65;9.65;;;14.20;99.90;;;;;;5029755;28;20391;-51
2021/09/09 01:54:24;;;;;;;11.00;9.23;;;14.20;99.90;;;;;;5039801;28;20025;-52
2021/09/09 01:56:49;;;;;;;9.70;8.73;;;14.20;99.90;;;;;;5039712;28;20029;-49
2021/09/09 01:59:15;;;;;;;13.70;9.13;;;14.10;99.90;;;;;;5045915;28;20125;-54
2021/09/09 02:01:41;;;;;;;13.18;11.27;;;14.10;99.90;;;;;;5039929;28;20491;-50
2021/09/09 02:04:06;;;;;;;10.20;8.95;;;14.10;99.90;;;;;;5046702;28;20029;-54
2021/09/09 02:06:33;;;;;;;12.07;9.40;;;14.10;99.90;;;;;;5039137;28;20032;-50
2021/09/09 02:09:00;;;;;;;14.27;9.70;;;14.10;99.90;;;;;;5040208;28;20104;-53
2021/09/09 02:11:26;;;;;;;11.05;9.50;;;14.10;99.90;;;;;;5044792;28;20017;-51
2021/09/09 02:13:52;;;;;;;11.88;10.00;;;14.10;99.90;;;;;;5038634;28;20079;-52
2021/09/09 02:16:18;;;;;;;11.82;10.20;;;14.10;99.90;;;;;;5046492;28;20542;-50
2021/09/09 02:18:43;;;;;;;11.85;10.05;;;14.10;99.90;;;;;;5039484;28;20034;-51
2021/09/09 02:21:09;;;;;;;12.88;10.38;;;14.10;99.90;;;;;;5029534;28;20017;-53
2021/09/09 02:23:35;;;;;;;13.15;10.35;;;14.10;99.90;;;;;;5038653;28;20029;-51
2021/09/09 02:26:00;;;;;;;16.00;11.95;;;14.10;99.90;;;;;;5039879;28;20039;-51
2021/09/09 02:28:26;;;;;;;14.55;11.60;;;14.10;99.90;;;;;;5044437;28;20629;-50
2021/09/09 02:30:51;;;;;;;18.60;12.20;;;14.20;99.90;;;;;;5039188;28;20024;-50
2021/09/09 02:33:17;;;;;;;15.02;12.45;;;14.20;99.90;;;;;;5046387;28;20022;-50
2021/09/09 02:35:42;;;;;;;14.38;11.48;;;14.20;99.90;;;;;;5038460;28;20171;-52
2021/09/09 02:38:08;;;;;;;14.82;11.75;;;14.20;99.90;;;;;;5068505;22;20052;-51
2021/09/09 02:40:34;;;;;;;11.55;10.35;;;14.20;99.90;;;;;;5039424;28;20514;-54
2021/09/09 02:43:00;;;;;;;13.05;11.15;;;14.10;99.90;;;;;;5039959;28;20030;-55
2021/09/09 02:45:25;;;;;;;12.10;10.70;;;14.10;99.90;;;;;;5026839;28;20026;-51
2021/09/09 02:47:51;;;;;;;12.73;11.43;;;14.10;99.90;;;;;;5039359;28;20026;-51
2021/09/09 02:50:17;;;;;;;16.55;12.23;;;14.10;99.90;;;;;;5028392;28;20022;-51
2021/09/09 02:52:43;;;;;;;12.88;11.25;;;14.10;99.90;;;;;;5041527;28;20026;-51
2021/09/09 02:55:10;;;;;;;12.93;10.65;;;14.10;99.90;;;;;;5028863;28;20021;-52
2021/09/09 02:57:37;;;;;;;13.35;10.65;;;14.10;99.90;;;;;;5020845;28;20025;-52
2021/09/09 03:00:04;;;;;;;13.18;11.25;;;14.10;99.90;;;;;;5040162;28;20029;-51
2021/09/09 03:02:30;;;;;;;13.23;11.80;;;14.00;99.90;;;;;;5043603;28;20030;-50
2021/09/09 03:04:56;;;;;;;15.05;10.63;;;14.00;99.90;;;;;;5038597;28;20031;-52
2021/09/09 03:07:22;;;;;;;14.77;10.95;;;14.00;99.90;;;;;;5024289;28;20032;-53
2021/09/09 03:09:48;;;;;;;12.07;10.75;;;13.90;99.90;;;;;;5022829;28;20079;-50
2021/09/09 03:12:16;;;;;;;12.57;10.93;;;13.90;99.90;;;;;;5041350;28;20452;-51
2021/09/09 03:14:42;;;;;;;11.73;10.50;;;13.90;99.90;;;;;;5042232;28;20036;-50
2021/09/09 03:17:07;;;;;;;11.82;10.57;;;13.90;99.90;;;;;;5040707;28;20079;-51
2021/09/09 03:19:33;;;;;;;13.55;11.45;;;13.90;99.90;;;;;;5024358;28;20108;-50
2021/09/09 03:21:59;;;;;;;12.90;11.15;;;13.80;99.90;;;;;;5041435;28;20052;-54
2021/09/09 03:24:24;;;;;;;12.55;11.00;;;13.80;99.90;;;;;;5042117;28;20025;-52
2021/09/09 03:26:50;;;;;;;15.48;12.82;;;13.80;99.90;;;;;;5022492;28;20129;-51
2021/09/09 03:29:16;;;;;;;13.38;11.52;;;13.80;99.90;;;;;;5041410;28;20395;-51
2021/09/09 03:31:42;;;;;;;13.73;11.55;;;13.80;99.90;;;;;;5041949;28;20025;-51
2021/09/09 03:34:08;;;;;;;12.57;10.45;;;13.80;99.90;;;;;;5022688;28;20095;-51
2021/09/09 03:36:34;;;;;;;13.50;11.98;;;13.80;99.90;;;;;;5041753;28;20028;-54
2021/09/09 03:39:00;;;;;;;17.30;12.38;;;13.80;99.90;;;;;;5023303;28;20029;-54
2021/09/09 03:41:25;;;;;;;12.82;11.48;;;13.80;99.90;;;;;;5041801;28;20029;-52
2021/09/09 03:43:51;;;;;;;12.77;11.45;;;13.80;99.90;;;;;;5022874;28;20108;-54
2021/09/09 03:46:17;;;;;;;12.45;11.25;;;13.70;99.90;;;;;;5023660;28;20108;-50
2021/09/09 03:48:43;;;;;;;13.90;11.95;;;13.70;99.90;;;;;;5041780;28;20032;-52
2021/09/09 03:51:08;;;;;;;14.27;12.77;;;13.70;99.90;;;;;;5040557;28;20057;-54
2021/09/09 03:53:34;;;;;;;17.58;13.32;;;13.70;99.90;;;;;;5024061;28;20025;-55
2021/09/09 03:55:59;;;;;;;14.43;12.85;;;13.70;99.90;;;;;;5023169;28;20468;-55
2021/09/09 03:58:25;;;;;;;16.90;13.18;;;13.70;99.90;;;;;;5023815;28;20032;-51
2021/09/09 04:00:51;;;;;;;14.93;12.63;;;13.70;99.90;;;;;;5022398;28;20504;-55
2021/09/09 04:03:17;;;;;;;16.15;13.27;;;13.70;99.90;;;;;;5041109;28;20458;-53
2021/09/09 04:05:42;;;;;;;15.38;12.23;;;13.70;99.90;;;;;;5023555;28;20098;-50
2021/09/09 04:08:08;;;;;;;15.85;13.30;;;13.70;99.90;;;;;;5039464;28;20040;-51
2021/09/09 04:10:34;;;;;;;15.70;13.73;;;13.70;99.90;;;;;;5041067;28;20108;-52
2021/09/09 04:13:00;;;;;;;14.98;12.20;;;13.70;99.90;;;;;;5023152;28;20025;-51
2021/09/09 04:15:26;;;;;;;13.60;12.13;;;13.70;99.90;;;;;;5040189;28;20086;-52
2021/09/09 04:17:51;;;;;;;13.98;11.75;;;13.70;99.90;;;;;;5041207;28;20035;-51
2021/09/09 04:20:17;;;;;;;14.43;12.82;;;13.60;99.90;;;;;;5040987;28;20017;-54
2021/09/09 04:22:43;;;;;;;14.27;12.77;;;13.60;99.90;;;;;;5042857;28;20021;-53
2021/09/09 04:25:10;;;;;;;14.90;13.02;;;13.60;99.90;;;;;;5042118;28;20060;-50
2021/09/09 04:27:35;;;;;;;15.30;12.30;;;13.60;99.90;;;;;;5027368;28;20025;-55
2021/09/09 04:30:02;;;;;;;14.68;12.88;;;13.60;99.90;;;;;;5026371;28;20031;-53
2021/09/09 04:32:27;;;;;;;14.57;13.05;;;13.60;99.90;;;;;;5044929;28;20565;-53
2021/09/09 04:34:53;;;;;;;16.00;13.18;;;13.60;99.90;;;;;;5044954;28;20021;-54
2021/09/09 04:37:20;;;;;;;16.33;13.70;;;13.60;99.90;;;;;;5044318;28;20116;-50
2021/09/09 04:39:46;;;;;;;16.30;14.40;;;13.60;99.90;;;;;;5027375;28;20036;-52
2021/09/09 04:42:11;;;;;;;17.88;14.45;;;13.60;99.90;;;;;;5042836;28;20021;-53
2021/09/09 04:44:37;;;;;;;15.90;14.25;;;13.60;99.90;;;;;;5044863;28;20491;-50
2021/09/09 04:47:03;;;;;;;15.27;13.55;;;13.60;99.90;;;;;;5043594;28;20028;-51
2021/09/09 04:49:29;;;;;;;16.88;13.85;;;13.50;99.90;;;;;;5027009;28;20035;-51
2021/09/09 04:51:55;;;;;;;16.52;14.13;;;13.50;99.90;;;;;;5027458;28;20457;-51
2021/09/09 04:54:21;;;;;;;17.42;14.57;;;13.50;99.90;;;;;;5024535;28;20563;-52
2021/09/09 04:56:46;;;;;;;16.95;13.77;;;13.50;99.90;;;;;;5026748;28;20027;-52
2021/09/09 04:59:12;;;;;;;16.17;14.48;;;13.50;99.90;;;;;;5024449;28;20464;-50
2021/09/09 05:01:38;;;;;;;16.75;13.98;;;13.50;99.90;;;;;;5027214;28;20063;-52
2021/09/09 05:04:04;;;;;;;15.57;13.02;;;13.50;99.90;;;;;;5025837;28;20025;-51
2021/09/09 05:06:29;;;;;;;15.95;13.95;;;13.50;99.90;;;;;;5040911;28;20056;-51
2021/09/09 05:08:55;;;;;;;16.98;13.98;;;13.50;99.90;;;;;;5022207;28;20025;-51
2021/09/09 05:11:21;;;;;;;17.38;14.82;;;13.50;99.90;;;;;;5029392;28;20021;-51
2021/09/09 05:13:46;;;;;;;17.20;14.20;;;13.50;99.90;;;;;;5040375;28;20017;-49
2021/09/09 05:16:12;;;;;;;16.27;14.57;;;13.50;99.90;;;;;;5030037;28;20674;-52
2021/09/09 05:18:38;;;;;;;15.95;14.23;;;13.50;99.90;;;;;;5022862;28;20048;-56
2021/09/09 05:21:03;;;;;;;19.90;14.40;;;13.50;99.90;;;;;;5048773;28;20103;-52
2021/09/09 05:23:29;;;;;;;14.85;12.35;;;13.50;99.90;;;;;;5040192;28;20427;-50
2021/09/09 05:25:55;;;;;;;15.55;13.85;;;13.50;99.90;;;;;;5040808;28;20112;-51
2021/09/09 05:28:21;;;;;;;16.13;14.27;;;13.50;99.90;;;;;;5030098;28;20117;-50
2021/09/09 05:30:46;;;;;;;16.48;14.75;;;13.50;99.90;;;;;;5040463;28;20022;-51
2021/09/09 05:33:13;;;;;;;17.58;14.77;;;13.60;99.90;;;;;;5029295;28;20167;-51
2021/09/09 05:35:40;;;;;;;17.15;14.25;;;13.60;99.90;;;;;;5040286;28;20420;-50
2021/09/09 05:38:06;;;;;;;19.35;15.43;;;13.60;99.90;;;;;;5048147;28;20061;-51
2021/09/09 05:40:32;;;;;;;19.17;16.52;;;13.60;99.90;;;;;;5021781;28;20114;-53
2021/09/09 05:42:58;;;;;;;18.33;14.63;;;13.60;99.90;;;;;;5041084;28;20049;-53
2021/09/09 05:45:24;;;;;;;20.02;16.08;;;13.60;99.90;;;;;;5027822;28;20033;-54
2021/09/09 05:47:49;;;;;;;15.93;13.98;;;13.70;99.90;;;;;;5040030;28;20033;-52
2021/09/09 05:50:17;;;;;;;19.33;14.98;;;13.70;99.90;;;;;;5047368;28;20116;-52
2021/09/09 05:52:44;;;;;;;19.85;15.35;;;13.70;99.90;;;;;;5022285;28;20448;-51
2021/09/09 05:55:10;;;;;;;16.73;14.93;;;13.80;99.90;;;;;;5029844;28;20119;-52
2021/09/09 05:57:36;;;;;;;17.75;15.23;;;13.70;99.90;;;;;;5039821;28;20498;-51
2021/09/09 06:00:01;;;;;;;18.55;15.68;;;13.80;99.90;;;;;;5040662;28;20025;-51
2021/09/09 06:02:27;;;;;;;20.13;16.40;;;13.80;99.90;;;;;;5045113;28;20025;-51
2021/09/09 06:04:55;;;;;;;17.20;15.38;;;13.80;99.90;;;;;;5039404;28;20439;-52
2021/09/09 06:07:21;;;;;;;18.67;16.70;;;13.90;99.90;;;;;;5029692;28;20032;-50
2021/09/09 06:09:47;;;;;;;21.33;16.45;;;13.90;99.90;;;;;;5041593;28;20028;-49
2021/09/09 06:12:13;;;;;;;22.63;16.80;;;14.00;99.90;;;;;;5042279;28;20426;-53
2021/09/09 06:14:38;;;;;;;17.33;15.07;;;14.00;99.90;;;;;;5043097;28;20029;-52
2021/09/09 06:17:04;;;;;;;21.58;16.80;;;14.00;99.90;;;;;;5041553;28;20101;-51
2021/09/09 06:19:30;;;;;;;16.80;15.07;;;14.10;99.90;;;;;;5043115;28;20036;-50
2021/09/09 06:21:56;;;;;;;20.15;16.33;;;14.10;99.90;;;;;;5024595;28;20108;-51
2021/09/09 06:24:21;;;;;;;18.13;16.02;;;14.20;99.90;;;;;;5042796;28;20055;-51
2021/09/09 06:26:47;;;;;;;18.10;14.98;;;14.20;99.90;;;;;;5041843;28;20104;-52
2021/09/09 06:29:12;;;;;;;17.88;16.00;;;14.30;99.90;;;;;;5041648;28;20076;-49
2021/09/09 06:31:38;;;;;;;19.88;16.30;;;14.30;99.90;;;;;;5042850;28;20029;-52
2021/09/09 06:34:04;;;;;;;18.20;15.38;;;14.40;99.90;;;;;;5041310;28;20050;-50
2021/09/09 06:36:29;;;;;;;21.05;16.25;;;14.40;99.90;;;;;;5042552;28;20025;-54
2021/09/09 06:38:55;;;;;;;19.52;15.18;;;14.50;99.90;;;;;;5042303;28;20033;-52
2021/09/09 06:41:20;;;;;;;19.05;15.07;;;14.50;99.90;;;;;;5011863;28;20064;-55
2021/09/09 06:43:46;;;;;;;17.15;15.00;;;14.60;99.90;;;;;;5041647;28;20025;-54
2021/09/09 06:46:11;;;;;;;17.95;15.95;;;14.70;99.90;;;;;;5040355;28;20036;-54
2021/09/09 06:48:37;;;;;;;17.42;15.52;;;14.80;99.90;;;;;;5042353;28;20025;-54
2021/09/09 06:51:03;;;;;;;16.75;14.73;;;14.80;99.90;;;;;;5041122;28;20045;-55
2021/09/09 06:53:32;;;;;;;18.92;15.05;;;15.00;99.90;;;;;;5042251;28;20492;-50
2021/09/09 06:55:58;;;;;;;17.70;15.82;;;15.00;99.90;;;;;;5041566;28;20501;-52
2021/09/09 06:58:24;;;;;;;18.05;15.43;;;15.10;99.90;;;;;;5024334;28;20021;-55
2021/09/09 07:00:50;;;;;;;18.88;16.38;;;15.30;99.90;;;;;;5040853;28;20025;-52
2021/09/09 07:03:17;;;;;;;14.95;13.45;;;15.40;99.90;;;;;;5023627;28;20731;-52
2021/09/09 07:05:42;;;;;;;19.95;15.70;;;15.50;99.90;;;;;;5041734;28;20395;-51
2021/09/09 07:08:08;;;;;;;16.88;15.10;;;15.60;99.90;;;;;;5040002;28;20036;-52
2021/09/09 07:10:36;;;;;;;17.17;13.85;;;15.70;99.90;;;;;;5042166;28;20671;-54
2021/09/09 07:13:02;;;;;;;16.33;13.82;;;15.80;99.90;;;;;;5041238;28;20029;-50
2021/09/09 07:15:28;;;;;;;15.38;13.20;;;16.00;99.90;;;;;;5041406;28;20017;-52
2021/09/09 07:17:53;;;;;;;13.93;12.43;;;16.20;99.90;;;;;;5041932;28;20079;-51
2021/09/09 07:20:19;;;;;;;15.63;14.00;;;16.30;99.90;;;;;;5041359;28;20491;-52
2021/09/09 07:22:45;;;;;;;14.93;12.57;;;16.50;99.90;;;;;;5041823;28;20108;-53
2021/09/09 07:25:11;;;;;;;15.70;14.13;;;16.70;99.90;;;;;;5038930;28;20517;-53
2021/09/09 07:27:38;;;;;;;14.35;12.85;;;16.90;99.90;;;;;;5041980;28;20033;-51
2021/09/09 07:30:05;;;;;;;14.15;12.65;;;17.10;99.90;;;;;;5040509;28;20028;-53
2021/09/09 07:32:30;;;;;;;14.60;13.02;;;17.40;99.90;;;;;;5035297;28;20036;-53
2021/09/09 07:34:56;;;;;;;16.30;12.00;;;17.60;99.90;;;;;;5041365;28;20351;-52
2021/09/09 07:37:21;;;;;;;13.45;11.43;;;17.80;99.90;;;;;;5041235;28;20079;-55
2021/09/09 07:39:47;;;;;;;16.00;12.40;;;18.00;99.90;;;;;;5042004;28;20028;-54
2021/09/09 07:42:13;;;;;;;12.80;10.75;;;18.20;99.90;;;;;;5039285;28;20446;-53
2021/09/09 07:44:38;;;;;;;12.48;11.18;;;18.50;99.90;;;;;;5024377;28;20024;-55
2021/09/09 07:47:05;;;;;;;11.50;10.43;;;18.60;99.90;;;;;;5040330;28;20060;-54
2021/09/09 07:49:31;;;;;;;15.07;11.73;;;18.80;99.90;;;;;;5035584;28;20060;-56
2021/09/09 07:51:56;;;;;;;12.68;11.40;;;19.00;99.90;;;;;;5041181;28;20106;-53
2021/09/09 07:54:22;;;;;;;14.32;11.27;;;19.10;99.90;;;;;;5041217;28;20033;-57
2021/09/09 07:56:48;;;;;;;13.30;10.18;;;19.30;99.90;;;;;;5042836;28;20021;-57
2021/09/09 07:59:15;;;;;;;12.43;11.07;;;19.40;99.90;;;;;;5042847;28;20054;-55
2021/09/09 08:01:40;;;;;;;11.07;9.98;;;19.60;99.90;;;;;;5028856;28;20083;-55
2021/09/09 08:04:06;;;;;;;12.50;10.70;;;19.80;99.90;;;;;;5043880;28;20033;-56
2021/09/09 08:06:32;;;;;;;11.32;10.23;;;20.00;99.90;;;;;;5023784;28;20495;-53
2021/09/09 08:08:57;;;;;;;11.57;10.38;;;20.20;99.90;;;;;;5042442;28;20396;-56
2021/09/09 08:11:23;;;;;;;10.43;8.95;;;20.40;99.90;;;;;;5029787;28;20017;-54
2021/09/09 08:13:52;;;;;;;11.18;9.73;;;20.60;99.90;;;;;;5024187;28;20009;-53
2021/09/09 08:16:20;;;;;;;10.80;9.70;;;20.70;99.90;;;;;;5049091;28;20018;-53
2021/09/09 08:18:46;;;;;;;9.68;8.68;;;21.00;99.90;;;;;;5023907;28;20113;-57
2021/09/09 08:21:12;;;;;;;11.10;9.35;;;21.20;99.90;;;;;;5049774;28;20040;-53
2021/09/09 08:23:37;;;;;;;10.18;8.98;;;21.40;99.90;;;;;;5041060;28;20018;-55
2021/09/09 08:26:03;;;;;;;9.85;8.85;;;21.50;99.90;;;;;;5024699;28;20571;-55
2021/09/09 08:28:29;;;;;;;11.07;9.88;;;21.70;99.90;;;;;;5046238;28;20029;-56
2021/09/09 08:30:54;;;;;;;11.45;9.38;;;21.80;99.90;;;;;;5041736;28;20472;-52
2021/09/09 08:33:20;;;;;;;9.45;8.55;;;21.80;99.90;;;;;;5041598;28;20483;-54
2021/09/09 08:35:45;;;;;;;10.88;8.70;;;22.00;99.90;;;;;;5041155;28;20112;-56
2021/09/09 08:38:11;;;;;;;11.23;9.48;;;22.20;99.90;;;;;;5049134;28;20111;-54
2021/09/09 08:40:38;;;;;;;11.13;8.80;;;22.30;99.90;;;;;;5041510;28;20108;-55
2021/09/09 08:43:05;;;;;;;12.40;9.18;;;22.50;99.90;;;;;;5042912;28;20044;-54
2021/09/09 08:45:31;;;;;;;9.88;8.80;;;22.70;99.90;;;;;;5045833;28;20037;-56
2021/09/09 08:48:02;;;;;;;10.15;8.20;;;22.80;99.90;;;;;;5041328;28;20022;-54
2021/09/09 08:50:28;;;;;;;8.70;7.78;;;22.90;99.90;;;;;;5029315;28;20475;-53
2021/09/09 08:52:55;;;;;;;9.73;8.75;;;22.90;99.90;;;;;;5037726;28;20505;-56
2021/09/09 08:55:21;;;;;;;11.45;8.68;;;23.00;99.90;;;;;;5048776;28;20022;-54
2021/09/09 08:57:46;;;;;;;11.13;8.43;;;23.10;99.90;;;;;;5041038;28;20396;-56
2021/09/09 09:00:13;;;;;;;9.13;8.18;;;23.20;99.90;;;;;;5043364;28;20387;-55
2021/09/09 09:02:56;;;;;;;10.05;8.27;;;23.30;99.90;;;;;;5044852;28;20017;-56
2021/09/09 09:05:22;;;;;;;8.32;7.53;;;23.40;99.90;;;;;;5029335;28;20017;-52
2021/09/09 09:08:03;;;;;;;8.13;7.38;;;23.50;99.90;;;;;;5043451;28;20076;-55
2021/09/09 09:10:30;;;;;;;9.30;8.00;;;23.60;99.90;;;;;;5036567;28;20626;-57
2021/09/09 09:12:55;;;;;;;10.95;7.75;;;23.60;99.90;;;;;;5044326;28;20566;-54
2021/09/09 09:15:23;;;;;;;9.32;8.32;;;23.60;99.90;;;;;;5041816;28;20029;-53
2021/09/09 09:18:07;;;;;;;8.00;6.63;;;23.70;99.90;;;;;;5043873;28;20048;-58
2021/09/09 09:20:52;;;;;;;8.10;7.15;;;23.60;99.90;;;;;;5027127;28;20459;-55
2021/09/09 09:23:21;;;;;;;8.18;7.38;;;23.60;99.90;;;;;;5040903;28;20631;-55
2021/09/09 09:25:50;;;;;;;7.75;7.05;;;23.60;99.90;;;;;;5040533;28;20414;-56
2021/09/09 09:28:36;;;;;;;9.68;7.30;;;23.60;99.90;;;;;;5028742;28;20051;-51
2021/09/09 09:31:04;;;;;;;7.97;6.82;;;23.50;99.90;;;;;;5039100;28;20018;-56
2021/09/09 09:33:35;;;;;;;8.48;6.75;;;23.50;99.90;;;;;;5045992;28;20036;-55
2021/09/09 09:36:25;;;;;;;9.95;7.40;;;23.60;99.90;;;;;;5041007;28;20021;-56
2021/09/09 09:38:54;;;;;;;8.10;7.28;;;23.60;99.90;;;;;;5043895;28;20123;-55
2021/09/09 09:41:24;;;;;;;8.38;6.70;;;23.70;99.90;;;;;;5043555;28;20029;-56
2021/09/09 09:43:59;;;;;;;7.95;7.18;;;23.70;99.90;;;;;;5042336;28;20025;-56
2021/09/09 09:46:29;;;;;;;8.00;6.97;;;23.80;99.90;;;;;;5032211;28;20066;-56
2021/09/09 09:48:55;;;;;;;7.05;6.28;;;23.80;99.90;;;;;;5042306;28;20059;-53
2021/09/09 09:51:41;;;;;;;7.03;6.32;;;23.80;99.60;;;;;;5032248;28;20104;-51
2021/09/09 09:54:08;;;;;;;7.20;6.50;;;23.80;98.40;;;;;;5043136;28;20025;-52
2021/09/09 09:56:35;;;;;;;7.50;6.80;;;23.70;99.30;;;;;;5043310;28;20025;-55
2021/09/09 09:59:01;;;;;;;7.60;6.78;;;23.70;98.60;;;;;;5042497;28;20546;-54
2021/09/09 10:01:28;;;;;;;10.00;6.45;;;23.70;99.40;;;;;;5042694;28;20049;-54
2021/09/09 10:03:56;;;;;;;8.25;6.25;;;23.80;98.20;;;;;;5043716;28;20036;-53
2021/09/09 10:06:21;;;;;;;9.88;6.35;;;23.70;98.20;;;;;;5020635;28;20029;-54
2021/09/09 10:08:47;;;;;;;9.88;6.57;;;23.70;98.40;;;;;;5039826;28;20032;-50
2021/09/09 10:11:13;;;;;;;7.40;6.70;;;23.70;99.40;;;;;;5045955;28;20021;-54
2021/09/09 10:13:39;;;;;;;8.48;6.70;;;23.70;99.60;;;;;;5039452;28;20027;-55
2021/09/09 10:16:05;;;;;;;6.95;6.25;;;23.70;98.20;;;;;;5028480;28;20025;-49
2021/09/09 10:18:31;;;;;;;8.35;6.72;;;23.70;98.20;;;;;;5039298;28;20033;-50
2021/09/09 10:20:56;;;;;;;7.25;6.30;;;23.70;98.50;;;;;;5046260;28;20065;-51
2021/09/09 10:23:26;;;;;;;8.80;6.45;;;23.70;99.00;;;;;;5039238;28;20029;-55
2021/09/09 10:25:54;;;;;;;12.10;6.53;;;23.70;98.40;;;;;;5039338;28;20100;-53
2021/09/09 10:28:46;;;;;;;10.27;6.88;;;23.70;98.40;;;;;;5045564;28;20044;-52
2021/09/09 10:31:13;;;;;;;9.20;6.65;;;23.70;98.70;;;;;;5039071;28;20400;-54
2021/09/09 10:33:44;;;;;;;6.88;5.90;;;23.80;98.30;;;;;;5025914;28;20025;-52
2021/09/09 10:36:40;;;;;;;6.95;6.25;;;23.80;99.20;;;;;;5023422;28;20021;-50
2021/09/09 10:39:08;;;;;;;8.45;6.32;;;23.80;97.30;;;;;;5042207;28;20029;-51
2021/09/09 10:41:34;;;;;;;8.70;6.47;;;23.80;98.30;;;;;;5042786;28;20036;-54
2021/09/09 10:44:02;;;;;;;7.40;6.65;;;23.80;97.60;;;;;;5040587;28;20048;-53
2021/09/09 10:46:38;;;;;;;7.28;6.45;;;23.90;97.80;;;;;;5042289;28;20498;-56
2021/09/09 10:49:10;;;;;;;;;;;23.90;98.40;;;;;;5041718;28;20089;-56
2021/09/09 10:51:36;;;;;;;9.50;6.55;;;23.90;97.70;;;;;;5024625;28;19905;-52
2021/09/09 10:54:02;;;;;;;7.25;5.93;;;24.00;97.60;;;;;;5042129;28;20118;-52
2021/09/09 10:56:36;;;;;;;7.10;5.47;;;24.00;96.80;;;;;;5041936;28;20028;-54
2021/09/09 10:59:23;;;;;;;7.68;5.60;;;24.00;96.40;;;;;;5041004;28;20106;-53
2021/09/09 11:01:49;;;;;;;6.80;6.10;;;24.00;96.60;;;;;;5044448;28;20511;-52
2021/09/09 11:04:34;;;;;;;6.97;6.03;;;24.00;96.00;;;;;;5039409;28;20096;-51
2021/09/09 11:07:01;;;;;;;7.15;6.45;;;24.00;96.70;;;;;;5018797;28;20036;-54
2021/09/09 11:09:28;;;;;;;7.03;6.32;;;24.10;96.10;;;;;;5042096;28;20047;-51
2021/09/09 11:12:04;;;;;;;6.80;6.20;;;24.10;96.10;;;;;;5040126;28;20621;-56
2021/09/09 11:14:31;;;;;;;7.68;6.32;;;24.10;96.30;;;;;;5029278;28;20055;-54
2021/09/09 11:16:56;;;;;;;8.55;6.45;;;24.20;95.70;;;;;;5040334;28;20095;-55
2021/09/09 11:19:23;;;;;;;7.63;5.50;;;24.20;96.10;;;;;;5042041;28;20048;-53
2021/09/09 11:21:49;;;;;;;7.88;5.75;;;24.30;95.40;;;;;;5042175;28;20539;-53
2021/09/09 11:24:16;;;;;;;9.32;5.97;;;24.30;95.90;;;;;;5040689;28;20052;-52
2021/09/09 11:26:48;;;;;;;7.72;6.38;;;24.40;95.80;;;;;;5041137;28;20028;-56
2021/09/09 11:29:16;;;;;;;13.00;6.80;;;24.40;94.30;;;;;;5040797;28;20443;-55
2021/09/09 11:31:47;;;;;;;6.35;5.45;;;24.50;93.80;;;;;;5041280;28;20104;-51
2021/09/09 11:34:12;;;;;;;7.72;6.28;;;24.50;95.50;;;;;;5039724;28;20018;-56
2021/09/09 11:36:41;;;;;;;9.50;6.47;;;24.40;94.50;;;;;;5041831;28;20087;-56
2021/09/09 11:39:12;;;;;;;7.75;5.63;;;24.50;94.80;;;;;;5041302;28;20026;-57
2021/09/09 11:41:39;;;;;;;7.57;5.95;;;24.50;94.60;;;;;;5041342;28;20021;-56
2021/09/09 11:44:29;;;;;;;7.38;6.45;;;24.50;93.80;;;;;;5021848;28;20033;-58
2021/09/09 11:46:56;;;;;;;7.43;5.78;;;24.50;93.70;;;;;;5041511;28;20104;-57
2021/09/09 11:49:25;;;;;;;6.80;6.10;;;24.60;94.30;;;;;;5040717;28;20022;-54
2021/09/09 11:51:53;;;;;;;6.88;6.18;;;24.60;94.10;;;;;;5041672;28;20017;-55
2021/09/09 11:54:26;;;;;;;7.15;6.30;;;24.60;93.80;;;;;;5041228;28;20799;-55
2021/09/09 11:57:17;;;;;;;9.00;6.38;;;24.60;94.40;;;;;;5041431;28;20032;-56
2021/09/09 11:59:50;;;;;;;7.97;6.20;;;24.60;94.30;;;;;;5033173;28;20221;-54
2021/09/09 12:02:21;;;;;;;7.10;6.40;;;24.70;93.90;;;;;;5044452;28;20025;-53
2021/09/09 12:04:47;;;;;;;7.60;6.60;;;24.70;93.20;;;;;;5037786;28;20105;-53
2021/09/09 12:07:24;;;;;;;7.32;6.18;;;24.80;93.40;;;;;;5040398;28;20201;-53
2021/09/09 12:10:01;;;;;;;9.02;6.10;;;24.80;93.70;;;;;;5039818;28;20032;-57
2021/09/09 12:12:33;;;;;;;7.85;6.18;;;24.90;93.80;;;;;;5030773;28;20053;-51
2021/09/09 12:15:01;;;;;;;8.50;6.63;;;24.90;91.90;;;;;;5039073;28;20025;-55
2021/09/09 12:17:27;;;;;;;11.77;6.85;;;25.00;92.20;;;;;;5023438;28;20029;-55
2021/09/09 12:19:54;;;;;;;6.68;6.07;;;25.00;92.30;;;;;;5040963;28;20025;-54
2021/09/09 12:22:21;;;;;;;6.68;5.90;;;25.00;92.60;;;;;;5012686;28;20032;-54
2021/09/09 12:24:47;;;;;;;9.15;6.30;;;25.10;91.80;;;;;;5040370;28;20071;-52
2021/09/09 12:27:18;;;;;;;6.72;5.75;;;25.20;92.70;;;;;;5039119;28;20021;-56
2021/09/09 12:29:45;;;;;;;6.95;5.95;;;25.20;92.10;;;;;;5041169;28;20387;-55
2021/09/09 12:32:30;;;;;;;6.20;5.60;;;25.20;93.00;;;;;;5039893;28;20075;-55
2021/09/09 12:35:16;;;;;;;7.03;6.32;;;25.30;93.10;;;;;;5041109;28;20056;-53
2021/09/09 12:37:42;;;;;;;7.25;5.63;;;25.30;93.20;;;;;;5038594;28;20048;-54